createdAt,value
2018-02-10T00:04:26.728Z,64.96
2018-02-10T00:06:54.165Z,65.18
2018-02-10T00:09:21.862Z,65.74
2018-02-10T00:11:49.318Z,65.28
2018-02-10T00:14:16.800Z,64.92
2018-02-10T00:16:44.254Z,64.95
2018-02-10T00:19:11.816Z,65.09
2018-02-10T00:21:39.240Z,65.78
2018-02-10T00:24:06.721Z,65.89
2018-02-10T00:26:34.361Z,66.57
2018-02-10T00:29:01.826Z,65.84
2018-02-10T00:31:37.892Z,66.22
2018-02-10T00:34:16.500Z,66.04
2018-02-10T00:36:45.405Z,66.40
2018-02-10T00:39:13.114Z,66.67
2018-02-10T00:41:40.586Z,67.20
2018-02-10T00:44:08.023Z,67.11
2018-02-10T00:46:35.780Z,66.62
2018-02-10T00:49:03.355Z,66.58
2018-02-10T00:51:30.811Z,66.70
2018-02-10T00:53:58.268Z,66.27
2018-02-10T00:56:25.785Z,67.26
2018-02-10T00:58:53.361Z,66.63
2018-02-10T01:01:20.800Z,66.31
2018-02-10T01:03:48.240Z,65.82
2018-02-10T01:06:15.756Z,65.80
2018-02-10T01:08:43.211Z,66.33
2018-02-10T01:11:10.674Z,66.29
2018-02-10T01:13:38.237Z,67.40
2018-02-10T01:16:05.702Z,66.46
2018-02-10T01:18:33.144Z,66.89
2018-02-10T01:21:00.578Z,66.85
2018-02-10T01:23:28.112Z,67.48
2018-02-10T01:25:55.563Z,67.20
2018-02-10T01:28:23.012Z,67.99
2018-02-10T01:30:50.447Z,66.77
2018-02-10T01:33:17.909Z,67.82
2018-02-10T01:35:45.329Z,68.30
2018-02-10T01:38:12.780Z,67.92
2018-02-10T01:40:40.268Z,67.33
2018-02-10T01:43:07.713Z,68.24
2018-02-10T01:45:36.048Z,67.01
2018-02-10T01:48:03.512Z,67.03
2018-02-10T01:50:30.947Z,67.95
2018-02-10T01:52:58.384Z,67.55
2018-02-10T01:55:25.899Z,67.87
2018-02-10T01:57:53.324Z,67.98
2018-02-10T02:00:20.837Z,69.04
2018-02-10T02:02:48.274Z,68.33
2018-02-10T02:05:15.727Z,67.40
2018-02-10T02:07:43.152Z,67.16
2018-02-10T02:10:10.629Z,68.09
2018-02-10T02:12:38.100Z,67.09
2018-02-10T02:15:06.166Z,67.76
2018-02-10T02:17:33.605Z,67.62
2018-02-10T02:20:01.057Z,67.11
2018-02-10T02:22:28.497Z,67.62
2018-02-10T02:24:55.956Z,67.61
2018-02-10T02:27:23.393Z,66.99
2018-02-10T02:29:50.845Z,66.20
2018-02-10T02:32:18.279Z,66.91
2018-02-10T02:34:45.740Z,66.58
2018-02-10T02:37:13.174Z,66.53
2018-02-10T02:39:40.620Z,66.91
2018-02-10T02:42:08.070Z,67.35
2018-02-10T02:44:36.447Z,66.75
2018-02-10T02:47:03.932Z,68.04
2018-02-10T02:49:31.366Z,66.90
2018-02-10T02:51:58.846Z,66.50
2018-02-10T02:54:26.285Z,66.12
2018-02-10T02:56:53.805Z,66.61
2018-02-10T02:59:21.248Z,66.66
2018-02-10T03:01:48.707Z,67.28
2018-02-10T03:04:16.140Z,67.67
2018-02-10T03:06:43.596Z,67.99
2018-02-10T03:09:14.187Z,67.48
2018-02-10T03:11:41.631Z,68.05
2018-02-10T03:14:09.069Z,67.80
2018-02-10T03:16:36.525Z,67.80
2018-02-10T03:19:03.956Z,68.56
2018-02-10T03:21:31.428Z,68.00
2018-02-10T03:23:59.613Z,68.01
2018-02-10T03:26:27.169Z,67.72
2018-02-10T03:28:54.628Z,68.14
2018-02-10T03:31:22.075Z,67.98
2018-02-10T03:33:49.553Z,68.91
2018-02-10T03:36:16.994Z,70.23
2018-02-10T03:38:44.447Z,70.25
2018-02-10T03:41:11.960Z,69.72
2018-02-10T03:43:39.431Z,70.36
2018-02-10T03:46:06.877Z,69.06
2018-02-10T03:48:34.392Z,68.64
2018-02-10T03:51:01.820Z,69.27
2018-02-10T03:53:29.299Z,68.92
2018-02-10T03:55:56.749Z,69.59
2018-02-10T03:58:24.384Z,68.99
2018-02-10T04:00:51.830Z,69.02
2018-02-10T04:03:19.280Z,69.51
2018-02-10T04:05:46.740Z,69.62
2018-02-10T04:08:14.194Z,69.65
2018-02-10T04:10:41.652Z,69.23
2018-02-10T04:13:09.117Z,68.29
2018-02-10T04:15:40.933Z,68.92
2018-02-10T04:18:09.702Z,69.48
2018-02-10T04:20:37.912Z,70.02
2018-02-10T04:23:05.445Z,68.82
2018-02-10T04:25:32.927Z,69.73
2018-02-10T04:28:00.372Z,69.63
2018-02-10T04:30:27.806Z,70.17
2018-02-10T04:32:55.255Z,69.02
2018-02-10T04:35:22.696Z,70.08
2018-02-10T04:37:50.220Z,69.67
2018-02-10T04:40:17.634Z,69.01
2018-02-10T04:42:45.090Z,69.38
2018-02-10T04:45:12.516Z,70.22
2018-02-10T04:47:40.088Z,70.22
2018-02-10T04:50:07.542Z,70.75
2018-02-10T04:52:34.996Z,70.43
2018-02-10T04:55:02.473Z,71.04
2018-02-10T04:57:29.930Z,70.78
2018-02-10T04:59:57.449Z,70.97
2018-02-10T05:02:24.913Z,70.26
2018-02-10T05:04:52.340Z,70.83
2018-02-10T05:07:20.276Z,70.81
2018-02-10T05:09:47.761Z,70.75
2018-02-10T05:12:15.208Z,70.63
2018-02-10T05:14:42.652Z,70.63
2018-02-10T05:17:10.111Z,70.88
2018-02-10T05:19:37.558Z,71.24
2018-02-10T05:22:05.025Z,71.48
2018-02-10T05:24:32.472Z,70.47
2018-02-10T05:26:59.900Z,70.65
2018-02-10T05:29:27.352Z,69.96
2018-02-10T05:31:54.790Z,70.42
2018-02-10T05:34:22.247Z,70.43
2018-02-10T05:36:49.675Z,70.05
2018-02-10T05:39:17.153Z,70.01
2018-02-10T05:41:44.668Z,71.22
2018-02-10T05:44:12.113Z,71.59
2018-02-10T05:46:39.535Z,71.22
2018-02-10T05:49:07.116Z,70.55
2018-02-10T05:51:34.549Z,71.36
2018-02-10T05:54:02.001Z,71.32
2018-02-10T05:56:29.450Z,71.12
2018-02-10T05:58:57.036Z,70.98
2018-02-10T06:01:24.552Z,71.24
2018-02-10T06:03:51.988Z,70.35
2018-02-10T06:06:19.506Z,70.04
2018-02-10T06:08:47.113Z,70.52
2018-02-10T06:11:14.559Z,71.02
2018-02-10T06:13:42.085Z,71.08
2018-02-10T06:16:09.538Z,70.48
2018-02-10T06:18:37.173Z,70.57
2018-02-10T06:21:05.034Z,71.12
2018-02-10T06:23:32.464Z,72.02
2018-02-10T06:25:59.892Z,72.60
2018-02-10T06:28:27.351Z,72.28
2018-02-10T06:30:54.798Z,71.64
2018-02-10T06:33:22.253Z,71.86
2018-02-10T06:35:49.690Z,72.40
2018-02-10T06:38:17.130Z,73.13
2018-02-10T06:40:44.643Z,72.72
2018-02-10T06:43:12.095Z,72.37
2018-02-10T06:45:39.517Z,71.88
2018-02-10T06:48:07.531Z,72.14
2018-02-10T06:50:34.981Z,72.52
2018-02-10T06:53:02.443Z,72.22
2018-02-10T06:55:29.905Z,73.11
2018-02-10T06:57:57.361Z,72.73
2018-02-10T07:00:24.898Z,72.99
2018-02-10T07:02:52.328Z,73.04
2018-02-10T07:05:19.768Z,73.13
2018-02-10T07:07:47.205Z,72.18
2018-02-10T07:10:14.663Z,72.88
2018-02-10T07:12:42.104Z,72.34
2018-02-10T07:15:09.591Z,73.13
2018-02-10T07:17:37.428Z,73.56
2018-02-10T07:20:04.998Z,72.77
2018-02-10T07:22:32.464Z,72.13
2018-02-10T07:24:59.981Z,72.34
2018-02-10T07:27:27.461Z,72.05
2018-02-10T07:29:54.897Z,71.93
2018-02-10T07:32:22.374Z,72.77
2018-02-10T07:34:49.818Z,71.80
2018-02-10T07:37:17.459Z,72.60
2018-02-10T07:39:48.857Z,72.97
2018-02-10T07:42:16.965Z,72.25
2018-02-10T07:44:44.563Z,71.35
2018-02-10T07:47:12.017Z,72.08
2018-02-10T07:49:39.464Z,71.85
2018-02-10T07:52:07.578Z,72.12
2018-02-10T07:54:35.006Z,71.95
2018-02-10T07:57:02.470Z,72.28
2018-02-10T07:59:29.948Z,71.86
2018-02-10T08:01:57.390Z,71.94
2018-02-10T08:04:24.939Z,71.53
2018-02-10T08:06:52.380Z,71.41
2018-02-10T08:09:19.852Z,71.53
2018-02-10T08:11:47.288Z,71.05
2018-02-10T08:14:14.854Z,71.71
2018-02-10T08:16:42.319Z,71.60
2018-02-10T08:19:09.813Z,71.37
2018-02-10T08:21:37.687Z,70.89
2018-02-10T08:24:05.145Z,71.07
2018-02-10T08:26:32.620Z,71.35
2018-02-10T08:29:00.073Z,71.14
2018-02-10T08:31:27.575Z,71.12
2018-02-10T08:33:55.520Z,71.43
2018-02-10T08:36:22.959Z,71.59
2018-02-10T08:38:50.417Z,70.49
2018-02-10T08:41:17.876Z,70.73
2018-02-10T08:43:45.332Z,71.44
2018-02-10T08:46:12.781Z,71.43
2018-02-10T08:48:40.245Z,71.25
2018-02-10T08:51:07.764Z,71.31
2018-02-10T08:53:35.267Z,70.38
2018-02-10T08:56:02.724Z,70.71
2018-02-10T08:58:30.196Z,70.14
2018-02-10T09:00:57.741Z,70.94
2018-02-10T09:03:25.187Z,71.51
2018-02-10T09:05:52.660Z,71.72
2018-02-10T09:08:20.090Z,71.09
2018-02-10T09:10:47.984Z,71.08
2018-02-10T09:13:15.436Z,71.02
2018-02-10T09:15:43.008Z,71.64
2018-02-10T09:18:10.476Z,71.25
2018-02-10T09:20:37.969Z,71.20
2018-02-10T09:23:05.552Z,70.39
2018-02-10T09:25:33.000Z,70.87
2018-02-10T09:28:00.450Z,71.35
2018-02-10T09:30:27.908Z,71.70
2018-02-10T09:32:55.365Z,71.29
2018-02-10T09:35:22.837Z,71.61
2018-02-10T09:37:50.277Z,69.97
2018-02-10T09:40:17.721Z,69.72
2018-02-10T09:42:45.156Z,71.27
2018-02-10T09:45:12.928Z,71.12
2018-02-10T09:47:40.919Z,72.23
2018-02-10T09:50:08.380Z,72.74
2018-02-10T09:52:35.838Z,72.20
2018-02-10T09:55:03.293Z,71.94
2018-02-10T09:57:30.859Z,71.58
2018-02-10T09:59:58.305Z,71.35
2018-02-10T10:02:25.763Z,71.29
2018-02-10T10:04:53.190Z,71.11
2018-02-10T10:07:20.654Z,71.24
2018-02-10T10:09:48.127Z,71.05
2018-02-10T10:12:15.653Z,70.58
2018-02-10T10:14:43.149Z,70.57
2018-02-10T10:17:10.601Z,69.94
2018-02-10T10:19:38.144Z,70.17
2018-02-10T10:22:05.615Z,69.54
2018-02-10T10:24:33.049Z,69.38
2018-02-10T10:27:00.507Z,69.52
2018-02-10T10:29:33.867Z,70.85
2018-02-10T10:32:01.300Z,71.20
2018-02-10T10:34:28.772Z,70.78
2018-02-10T10:36:56.262Z,70.44
2018-02-10T10:39:24.009Z,70.78
2018-02-10T10:44:39.296Z,70.08
2018-02-10T10:47:06.900Z,69.78
2018-02-10T10:49:34.360Z,70.09
2018-02-10T10:52:01.852Z,70.42
2018-02-10T10:54:29.358Z,70.49
2018-02-10T10:56:56.856Z,70.43
2018-02-10T10:59:24.308Z,69.94
2018-02-10T11:01:51.741Z,70.74
2018-02-10T11:04:19.606Z,71.02
2018-02-10T11:06:47.257Z,70.98
2018-02-10T11:09:14.694Z,71.10
2018-02-10T11:11:42.140Z,71.54
2018-02-10T11:14:09.609Z,71.01
2018-02-10T11:16:37.084Z,70.22
2018-02-10T11:19:04.510Z,70.48
2018-02-10T11:21:31.955Z,70.07
2018-02-10T11:23:59.469Z,69.94
2018-02-10T11:26:26.996Z,70.39
2018-02-10T11:28:54.463Z,70.86
2018-02-10T11:31:21.971Z,70.93
2018-02-10T11:33:49.409Z,70.96
2018-02-10T11:36:16.881Z,71.77
2018-02-10T11:38:44.426Z,71.61
2018-02-10T11:41:11.914Z,71.32
2018-02-10T11:43:39.367Z,70.94
2018-02-10T11:46:07.546Z,70.82
2018-02-10T11:48:35.006Z,70.70
2018-02-10T11:51:02.441Z,70.84
2018-02-10T11:53:29.914Z,71.53
2018-02-10T11:55:57.364Z,71.44
2018-02-10T11:58:24.810Z,71.10
2018-02-10T12:00:53.637Z,71.33
2018-02-10T12:03:23.533Z,70.95
2018-02-10T12:05:52.780Z,70.01
2018-02-10T12:08:20.502Z,70.72
2018-02-10T12:10:47.950Z,70.19
2018-02-10T12:13:15.386Z,71.29
2018-02-10T12:15:42.834Z,72.01
2018-02-10T12:18:10.264Z,70.87
2018-02-10T12:20:37.721Z,71.38
2018-02-10T12:23:05.147Z,72.12
2018-02-10T12:25:32.642Z,71.66
2018-02-10T12:28:00.086Z,71.20
2018-02-10T12:30:27.681Z,71.60
2018-02-10T12:32:55.108Z,71.81
2018-02-10T12:35:22.563Z,71.60
2018-02-10T12:37:50.258Z,71.42
2018-02-10T12:40:17.682Z,71.22
2018-02-10T12:42:45.157Z,69.88
2018-02-10T12:45:12.687Z,70.55
2018-02-10T12:47:57.964Z,69.99
2018-02-10T12:50:25.400Z,70.59
2018-02-10T12:52:52.864Z,71.11
2018-02-10T12:55:20.416Z,69.96
2018-02-10T12:57:47.870Z,70.32
2018-02-10T13:00:15.402Z,69.27
2018-02-10T13:02:42.852Z,69.90
2018-02-10T13:05:10.290Z,70.37
2018-02-10T13:07:37.769Z,70.20
2018-02-10T13:10:05.243Z,69.96
2018-02-10T13:12:32.777Z,69.60
2018-02-10T13:15:00.928Z,69.41
2018-02-10T13:17:28.469Z,69.71
2018-02-10T13:19:55.945Z,70.95
2018-02-10T13:22:23.383Z,70.13
2018-02-10T13:24:50.905Z,69.23
2018-02-10T13:27:18.394Z,69.54
2018-02-10T13:29:45.813Z,70.10
2018-02-10T13:32:13.251Z,69.84
2018-02-10T13:34:40.753Z,69.77
2018-02-10T13:37:09.045Z,69.09
2018-02-10T13:39:36.512Z,68.21
2018-02-10T13:42:03.937Z,68.42
2018-02-10T13:44:31.369Z,68.81
2018-02-10T13:46:58.852Z,69.13
2018-02-10T13:49:26.287Z,69.76
2018-02-10T13:51:54.961Z,68.70
2018-02-10T13:54:22.449Z,69.55
2018-02-10T13:56:49.928Z,70.36
2018-02-10T13:59:17.363Z,69.91
2018-02-10T14:01:45.107Z,69.69
2018-02-10T14:04:12.532Z,69.73
2018-02-10T14:06:39.990Z,69.65
2018-02-10T14:09:07.420Z,69.74
2018-02-10T14:11:34.885Z,69.23
2018-02-10T14:14:02.333Z,69.71
2018-02-10T14:16:29.897Z,70.41
2018-02-10T14:18:57.434Z,70.02
2018-02-10T14:21:24.919Z,69.03
2018-02-10T14:23:52.368Z,67.88
2018-02-10T14:26:19.805Z,67.97
2018-02-10T14:28:47.260Z,68.72
2018-02-10T14:31:14.732Z,67.43
2018-02-10T14:33:42.189Z,67.54
2018-02-10T14:36:09.646Z,67.95
2018-02-10T14:38:37.114Z,67.95
2018-02-10T14:41:04.537Z,68.54
2018-02-10T14:43:32.041Z,68.41
2018-02-10T14:45:59.486Z,67.74
2018-02-10T14:48:26.909Z,67.17
2018-02-10T14:50:54.389Z,67.29
2018-02-10T14:53:21.826Z,66.90
2018-02-10T14:55:49.301Z,67.65
2018-02-10T14:58:16.740Z,67.37
2018-02-10T15:00:44.197Z,66.82
2018-02-10T15:03:11.629Z,66.70
2018-02-10T15:05:39.401Z,67.41
2018-02-10T15:08:06.848Z,66.50
2018-02-10T15:10:34.328Z,66.36
2018-02-10T15:13:01.750Z,66.65
2018-02-10T15:15:29.280Z,66.09
2018-02-10T15:17:56.728Z,65.93
2018-02-10T15:20:24.243Z,65.44
2018-02-10T15:22:51.713Z,65.34
2018-02-10T15:25:19.149Z,65.90
2018-02-10T15:27:46.856Z,66.10
2018-02-10T15:30:26.091Z,66.58
2018-02-10T15:33:05.446Z,66.58
2018-02-10T15:35:32.880Z,67.15
2018-02-10T15:38:00.343Z,67.22
2018-02-10T15:40:27.838Z,67.12
2018-02-10T15:42:55.290Z,67.21
2018-02-10T15:45:24.053Z,66.90
2018-02-10T15:47:51.541Z,66.91
2018-02-10T15:50:18.972Z,67.37
2018-02-10T15:52:46.410Z,67.33
2018-02-10T15:55:13.886Z,66.90
2018-02-10T15:57:41.324Z,66.67
2018-02-10T16:00:09.625Z,67.54
2018-02-10T16:02:37.074Z,68.32
2018-02-10T16:05:04.551Z,68.28
2018-02-10T16:07:31.989Z,68.31
2018-02-10T16:09:59.429Z,67.10
2018-02-10T16:12:27.085Z,68.07
2018-02-10T16:14:54.528Z,68.03
2018-02-10T16:17:21.983Z,67.98
2018-02-10T16:19:49.456Z,68.58
2018-02-10T16:22:17.094Z,68.15
2018-02-10T16:24:44.839Z,68.16
2018-02-10T16:27:12.297Z,68.07
2018-02-10T16:29:40.097Z,67.68
2018-02-10T16:32:07.546Z,67.93
2018-02-10T16:34:34.984Z,68.00
2018-02-10T16:37:02.449Z,67.86
2018-02-10T16:39:29.941Z,68.35
2018-02-10T16:41:57.469Z,68.43
2018-02-10T16:44:24.867Z,67.85
2018-02-10T16:46:52.369Z,68.02
2018-02-10T16:49:19.834Z,68.77
2018-02-10T16:51:47.261Z,68.47
2018-02-10T16:54:14.709Z,68.45
2018-02-10T16:56:42.141Z,68.48
2018-02-10T16:59:09.803Z,68.85
2018-02-10T17:01:37.233Z,68.99
2018-02-10T17:04:04.677Z,68.51
2018-02-10T17:06:32.115Z,68.78
2018-02-10T17:08:59.563Z,68.86
2018-02-10T17:11:27.005Z,69.06
2018-02-10T17:13:54.449Z,69.21
2018-02-10T17:16:21.916Z,68.81
2018-02-10T17:18:49.512Z,68.59
2018-02-10T17:21:17.042Z,69.00
2018-02-10T17:23:44.486Z,68.77
2018-02-10T17:26:11.924Z,68.76
2018-02-10T17:28:39.367Z,69.12
2018-02-10T17:31:07.864Z,69.34
2018-02-10T17:33:35.308Z,68.95
2018-02-10T17:36:02.806Z,68.98
2018-02-10T17:38:30.422Z,69.20
2018-02-10T17:40:57.870Z,69.27
2018-02-10T17:43:25.315Z,69.41
2018-02-10T17:45:52.754Z,69.54
2018-02-10T17:48:20.267Z,69.48
2018-02-10T17:50:47.713Z,69.31
2018-02-10T17:53:15.209Z,69.52
2018-02-10T17:55:42.612Z,68.87
2018-02-10T17:58:10.097Z,69.55
2018-02-10T18:00:37.533Z,68.78
2018-02-10T18:03:04.991Z,69.09
2018-02-10T18:05:32.413Z,69.39
2018-02-10T18:07:59.865Z,69.89
2018-02-10T18:10:27.313Z,70.08
2018-02-10T18:12:54.734Z,69.45
2018-02-10T18:15:22.302Z,68.77
2018-02-10T18:17:49.761Z,69.25
2018-02-10T18:20:17.290Z,70.39
2018-02-10T18:22:44.779Z,70.57
2018-02-10T18:25:12.227Z,70.09
2018-02-10T18:27:40.225Z,70.68
2018-02-10T18:30:07.749Z,70.58
2018-02-10T18:32:35.176Z,70.52
2018-02-10T18:35:02.629Z,70.07
2018-02-10T18:37:30.092Z,70.27
2018-02-10T18:39:57.626Z,70.12
2018-02-10T18:42:25.101Z,70.37
2018-02-10T18:44:52.536Z,70.68
2018-02-10T18:47:19.977Z,70.43
2018-02-10T18:49:47.422Z,70.41
2018-02-10T18:52:14.977Z,70.79
2018-02-10T18:54:42.444Z,71.29
2018-02-10T18:57:10.244Z,71.22
2018-02-10T18:59:37.674Z,71.94
2018-02-10T19:02:05.186Z,71.68
2018-02-10T19:04:32.808Z,71.27
2018-02-10T19:07:00.261Z,72.15
2018-02-10T19:09:27.720Z,72.17
2018-02-10T19:11:55.195Z,71.93
2018-02-10T19:14:22.636Z,72.03
2018-02-10T19:16:50.110Z,72.00
2018-02-10T19:19:17.544Z,72.55
2018-02-10T19:21:45.016Z,72.42
2018-02-10T19:24:12.464Z,72.97
2018-02-10T19:26:40.409Z,72.95
2018-02-10T19:29:07.884Z,72.76
2018-02-10T19:31:35.328Z,73.40
2018-02-10T19:34:02.777Z,73.51
2018-02-10T19:36:30.200Z,72.98
2018-02-10T19:38:57.689Z,72.43
2018-02-10T19:41:25.119Z,72.79
2018-02-10T19:43:52.569Z,72.56
2018-02-10T19:46:20.014Z,73.54
2018-02-10T19:48:47.457Z,73.91
2018-02-10T19:51:14.876Z,73.07
2018-02-10T19:53:42.321Z,72.74
2018-02-10T19:56:11.747Z,73.28
2018-02-10T19:58:39.243Z,73.54
2018-02-10T20:01:06.708Z,72.94
2018-02-10T20:03:34.164Z,73.38
2018-02-10T20:06:01.643Z,74.57
2018-02-10T20:08:29.205Z,74.26
2018-02-10T20:10:56.688Z,73.22
2018-02-10T20:13:24.179Z,73.97
2018-02-10T20:15:51.770Z,74.10
2018-02-10T20:18:19.249Z,73.23
2018-02-10T20:20:46.704Z,74.15
2018-02-10T20:23:14.132Z,74.10
2018-02-10T20:25:41.776Z,74.54
2018-02-10T20:28:09.212Z,73.82
2018-02-10T20:30:36.636Z,73.81
2018-02-10T20:33:04.159Z,74.29
2018-02-10T20:35:31.697Z,75.07
2018-02-10T20:37:59.401Z,75.46
2018-02-10T20:40:26.841Z,75.33
2018-02-10T20:42:54.304Z,75.51
2018-02-10T20:45:21.773Z,74.71
2018-02-10T20:47:49.225Z,74.66
2018-02-10T20:50:16.684Z,74.79
2018-02-10T20:52:44.143Z,75.12
2018-02-10T20:55:11.662Z,74.93
2018-02-10T20:57:39.143Z,75.01
2018-02-10T21:00:06.600Z,74.01
2018-02-10T21:02:34.057Z,73.82
2018-02-10T21:05:01.682Z,74.86
2018-02-10T21:07:29.136Z,74.40
2018-02-10T21:09:56.568Z,74.74
2018-02-10T21:12:24.069Z,75.67
2018-02-10T21:14:51.562Z,75.23
2018-02-10T21:17:19.013Z,75.61
2018-02-10T21:19:46.557Z,75.12
2018-02-10T21:22:13.997Z,75.20
2018-02-10T21:24:41.479Z,75.44
2018-02-10T21:27:08.941Z,75.19
2018-02-10T21:29:36.553Z,75.50
2018-02-10T21:32:04.001Z,75.00
2018-02-10T21:34:31.485Z,74.67
2018-02-10T21:36:58.905Z,75.12
2018-02-10T21:39:26.361Z,75.30
2018-02-10T21:41:54.113Z,74.80
2018-02-10T21:44:21.597Z,75.75
2018-02-10T21:46:49.131Z,75.80
2018-02-10T21:49:16.600Z,75.60
2018-02-10T21:51:44.248Z,75.32
2018-02-10T21:54:11.750Z,75.21
2018-02-10T21:56:39.239Z,75.01
2018-02-10T21:59:06.696Z,74.27
2018-02-10T22:01:34.240Z,73.90
2018-02-10T22:04:01.710Z,73.82
2018-02-10T22:06:29.150Z,73.44
2018-02-10T22:08:56.567Z,73.46
2018-02-10T22:11:24.027Z,73.50
2018-02-10T22:13:51.449Z,72.94
2018-02-10T22:16:19.022Z,72.17
2018-02-10T22:18:46.461Z,71.92
2018-02-10T22:21:13.986Z,72.09
2018-02-10T22:23:41.624Z,71.88
2018-02-10T22:26:09.261Z,71.62
2018-02-10T22:28:36.942Z,71.49
2018-02-10T22:31:04.893Z,71.06
2018-02-10T22:33:32.671Z,71.04
2018-02-10T22:36:00.347Z,71.09
2018-02-10T22:38:28.179Z,71.01
2018-02-10T22:40:56.526Z,71.46
2018-02-10T22:43:24.223Z,71.59
2018-02-10T22:45:51.718Z,71.58
2018-02-10T22:48:19.139Z,70.85
2018-02-10T22:50:46.592Z,70.52
2018-02-10T22:53:14.180Z,71.26
2018-02-10T22:55:41.766Z,70.86
2018-02-10T22:58:09.184Z,70.52
2018-02-10T23:00:36.687Z,70.52
2018-02-10T23:03:04.439Z,70.62
2018-02-10T23:05:32.491Z,70.27
2018-02-10T23:08:00.355Z,71.27
2018-02-10T23:10:28.020Z,70.74
2018-02-10T23:12:56.800Z,70.16
2018-02-10T23:15:24.516Z,70.01
2018-02-10T23:17:52.222Z,69.79
2018-02-10T23:20:19.829Z,69.80
2018-02-10T23:22:49.144Z,70.46
2018-02-10T23:25:16.918Z,70.93
2018-02-10T23:27:44.689Z,70.08
2018-02-10T23:30:12.148Z,69.56
2018-02-10T23:32:39.595Z,69.89
2018-02-10T23:35:07.085Z,69.92
2018-02-10T23:37:34.580Z,70.28
2018-02-10T23:40:02.016Z,69.84
2018-02-10T23:42:29.476Z,71.06
2018-02-10T23:44:56.913Z,70.77
2018-02-10T23:47:24.357Z,70.63
2018-02-10T23:49:52.741Z,70.49
2018-02-10T23:52:20.200Z,70.43
2018-02-10T23:54:47.629Z,70.23
2018-02-10T23:57:15.082Z,69.63
2018-02-10T23:59:42.495Z,69.17
